Terminal Aerodrome Forecast
Issued by NWS Jackson, MS

Home | Current Version | Previous Version | Text Only | Print | Product List | Glossary On
Versions: 1 2 3 4 5 6 7 8 9 10 11 12 13 14 15 16 17 18
000
FTUS44 KJAN 232320
TAFMEI
TAF
KMEI 232320Z 2400/2424 19005KT P6SM FEW050
     FM240700 18005KT P6SM SCT015 BKN250
     FM240900 19004KT 3SM BR OVC007
     FM241300 19005KT P6SM OVC015
     FM241400 19010KT P6SM BKN040=

USA.gov is the U.S. government's official web portal to all federal, state and local government web resources and services.